Time;durP1;ratioP1;P1;durP2;ratioP2;P2;SDS_P1;SDS_P2;PMS_P1;PMS_P2;Temp;Humidity;BMP_temperature;BMP_pressure;BME280_temperature;BME280_humidity;BME280_pressure;Samples;Min_cycle;Max_cycle;Signal;HPM_P1;HPM_P2
2021/05/12 00:01:11;;;;;;;18.83;7.70;;;11.70;99.90;;;;;;5036698;28;20233;-82
2021/05/12 00:03:36;;;;;;;15.70;7.03;;;11.70;99.90;;;;;;5007644;28;21330;-83
2021/05/12 00:06:03;;;;;;;13.37;7.40;;;11.70;99.90;;;;;;5006820;28;20308;-84
2021/05/12 00:08:29;;;;;;;10.43;7.20;;;11.70;99.90;;;;;;5041031;28;20561;-84
2021/05/12 00:10:56;;;;;;;13.27;8.50;;;11.70;99.90;;;;;;5023982;28;20186;-83
2021/05/12 00:13:22;;;;;;;15.07;7.17;;;11.70;99.90;;;;;;5009182;28;20582;-82
2021/05/12 00:15:48;;;;;;;10.47;7.13;;;11.70;99.90;;;;;;5023006;28;20832;-83
2021/05/12 00:18:21;;;;;;;13.00;8.43;;;11.70;99.90;;;;;;5007176;28;20244;-82
2021/05/12 00:20:47;;;;;;;13.60;7.07;;;11.80;99.90;;;;;;5024890;28;20803;-83
2021/05/12 00:23:43;;;;;;;12.60;6.77;;;11.80;99.90;;;;;;5023871;28;20214;-82
2021/05/12 00:26:02;;;;;;;12.60;8.37;;;11.80;99.90;;;;;;5025106;28;20233;-81
2021/05/12 00:28:27;;;;;;;14.80;8.53;;;11.80;99.90;;;;;;5015422;28;20324;-82
2021/05/12 00:30:53;;;;;;;19.73;7.83;;;11.80;99.90;;;;;;5022819;28;20218;-81
2021/05/12 00:33:19;;;;;;;21.70;8.10;;;11.80;99.90;;;;;;5020046;28;20218;-82
2021/05/12 00:35:44;;;;;;;17.03;9.27;;;11.80;99.90;;;;;;5002295;28;20233;-82
2021/05/12 00:38:10;;;;;;;19.03;9.27;;;11.80;99.90;;;;;;5006252;28;20238;-83
2021/05/12 00:40:36;;;;;;;19.70;8.97;;;11.80;99.90;;;;;;5022504;28;20182;-82
2021/05/12 00:43:01;;;;;;;24.63;10.33;;;11.80;99.90;;;;;;5026384;28;20268;-82
2021/05/12 00:45:27;;;;;;;14.70;9.13;;;11.80;99.90;;;;;;5010208;28;20284;-82
2021/05/12 00:47:53;;;;;;;20.27;9.57;;;11.80;99.90;;;;;;4994454;28;20232;-83
2021/05/12 00:50:22;;;;;;;15.83;6.93;;;11.80;99.90;;;;;;5010413;28;20275;-82
2021/05/12 00:52:48;;;;;;;15.57;8.37;;;11.90;99.90;;;;;;5029016;28;20190;-83
2021/05/12 00:55:14;;;;;;;16.60;8.10;;;11.90;99.90;;;;;;5026118;28;20250;-82
2021/05/12 00:57:39;;;;;;;16.03;9.40;;;11.90;99.90;;;;;;4994813;28;20209;-84
2021/05/12 01:00:08;;;;;;;13.87;7.07;;;12.00;99.90;;;;;;5044346;28;20737;-83
2021/05/12 01:02:34;;;;;;;12.57;7.10;;;12.00;99.90;;;;;;5026544;28;20250;-84
2021/05/12 01:05:00;;;;;;;16.93;7.40;;;12.00;99.90;;;;;;4993903;28;20651;-82
2021/05/12 01:07:26;;;;;;;21.53;7.23;;;12.00;99.90;;;;;;5045991;28;20198;-82
2021/05/12 01:09:52;;;;;;;13.50;7.77;;;12.00;99.90;;;;;;5010295;28;20618;-82
2021/05/12 01:12:18;;;;;;;20.30;8.27;;;12.10;99.90;;;;;;4994114;28;20226;-84
2021/05/12 01:14:43;;;;;;;17.60;10.07;;;12.10;99.90;;;;;;5026256;28;20214;-83
2021/05/12 01:17:11;;;;;;;20.90;9.70;;;12.10;99.90;;;;;;5026173;28;21793;-82
2021/05/12 01:19:38;;;;;;;24.67;8.57;;;12.10;99.90;;;;;;5029009;28;20221;-82
2021/05/12 01:22:04;;;;;;;14.50;6.73;;;12.10;99.90;;;;;;5009995;28;20229;-82
2021/05/12 01:24:30;;;;;;;18.93;9.17;;;12.20;99.90;;;;;;5010323;28;20221;-82
2021/05/12 01:26:56;;;;;;;15.33;8.23;;;12.10;99.90;;;;;;5026743;28;20213;-82
2021/05/12 01:29:22;;;;;;;16.70;7.80;;;12.20;99.90;;;;;;5026124;28;20747;-82
2021/05/12 01:31:47;;;;;;;13.40;6.73;;;12.20;99.90;;;;;;5011444;28;20271;-83
2021/05/12 01:34:16;;;;;;;15.47;8.07;;;12.20;99.90;;;;;;5008575;28;20221;-82
2021/05/12 01:36:43;;;;;;;24.70;8.50;;;12.20;99.90;;;;;;5043149;28;20781;-83
2021/05/12 01:39:10;;;;;;;15.33;7.33;;;12.30;99.90;;;;;;5043187;28;20270;-82
2021/05/12 01:41:37;;;;;;;13.27;6.63;;;12.30;99.90;;;;;;5009454;28;20221;-82
2021/05/12 01:44:09;;;;;;;15.33;6.70;;;12.30;99.90;;;;;;5042288;28;20213;-82
2021/05/12 01:46:38;;;;;;;17.27;6.93;;;12.20;99.90;;;;;;5044935;28;20197;-82
2021/05/12 01:49:05;;;;;;;13.13;6.10;;;12.30;99.90;;;;;;5024589;28;20256;-83
2021/05/12 01:51:31;;;;;;;13.90;7.93;;;12.20;99.90;;;;;;5025885;28;20245;-83
2021/05/12 01:53:57;;;;;;;12.17;7.37;;;12.20;99.90;;;;;;5009819;28;20232;-82
2021/05/12 01:56:23;;;;;;;13.10;7.97;;;12.20;99.90;;;;;;5009972;28;20221;-81
2021/05/12 01:58:49;;;;;;;9.67;6.83;;;12.20;99.90;;;;;;5044833;28;20224;-82
2021/05/12 02:01:14;;;;;;;16.83;6.90;;;12.30;99.90;;;;;;5025850;28;20774;-82
2021/05/12 02:03:40;;;;;;;15.07;6.53;;;12.20;99.90;;;;;;5025773;28;20229;-83
2021/05/12 02:06:06;;;;;;;15.00;7.73;;;12.20;99.90;;;;;;5009608;28;20620;-83
2021/05/12 02:08:32;;;;;;;14.70;8.57;;;12.20;99.90;;;;;;5026014;28;20221;-81
2021/05/12 02:11:03;;;;;;;13.63;7.90;;;12.20;99.90;;;;;;5042808;28;20190;-82
2021/05/12 02:13:31;;;;;;;13.30;7.83;;;12.20;99.90;;;;;;5044391;28;20182;-82
2021/05/12 02:15:58;;;;;;;12.20;7.37;;;12.20;99.90;;;;;;5043592;28;20217;-83
2021/05/12 02:18:24;;;;;;;7.53;5.63;;;12.10;99.90;;;;;;5024911;28;20729;-82
2021/05/12 02:20:50;;;;;;;17.27;6.97;;;12.10;99.90;;;;;;5041682;28;20246;-82
2021/05/12 02:23:18;;;;;;;13.63;7.70;;;12.10;99.90;;;;;;5025717;28;20309;-83
2021/05/12 02:25:44;;;;;;;23.77;6.97;;;12.10;99.90;;;;;;5023764;28;20198;-84
2021/05/12 02:28:11;;;;;;;14.20;7.53;;;12.10;99.90;;;;;;5020362;28;20245;-83
2021/05/12 02:30:38;;;;;;;20.67;8.00;;;12.00;99.90;;;;;;5023001;28;20691;-84
2021/05/12 02:33:06;;;;;;;13.07;6.27;;;11.90;99.90;;;;;;5042900;28;20225;-83
2021/05/12 02:35:32;;;;;;;14.03;6.67;;;11.90;99.90;;;;;;5042727;28;20312;-82
2021/05/12 02:37:58;;;;;;;11.03;6.30;;;11.90;99.90;;;;;;5024672;28;20212;-82
2021/05/12 02:40:24;;;;;;;13.43;6.37;;;11.90;99.90;;;;;;5044074;28;20276;-85
2021/05/12 02:42:52;;;;;;;12.63;6.87;;;11.90;99.90;;;;;;5024693;28;20221;-82
2021/05/12 02:45:19;;;;;;;11.13;8.20;;;11.90;99.90;;;;;;4992396;28;20217;-83
2021/05/12 02:47:57;;;;;;;12.70;6.53;;;11.90;99.90;;;;;;5041051;28;20668;-82
2021/05/12 02:50:31;;;;;;;13.63;6.23;;;11.90;99.90;;;;;;5026838;28;20356;-82
2021/05/12 02:52:58;;;;;;;8.87;5.97;;;11.90;99.90;;;;;;5024220;28;20658;-82
2021/05/12 02:55:25;;;;;;;13.10;6.83;;;11.80;99.90;;;;;;5026254;28;20697;-85
2021/05/12 02:57:52;;;;;;;12.87;7.07;;;11.80;99.90;;;;;;5024802;28;20252;-84
2021/05/12 03:00:21;;;;;;;14.10;8.23;;;11.80;99.90;;;;;;5042159;28;20237;-84
2021/05/12 03:02:47;;;;;;;17.07;7.50;;;11.70;99.90;;;;;;5024632;28;20222;-83
2021/05/12 03:05:14;;;;;;;12.00;6.80;;;11.70;99.90;;;;;;5042267;28;20300;-84
2021/05/12 03:07:40;;;;;;;10.57;6.93;;;11.60;99.90;;;;;;5025855;28;20189;-84
2021/05/12 03:10:07;;;;;;;11.73;7.40;;;11.60;99.90;;;;;;5042241;28;20218;-82
2021/05/12 03:12:33;;;;;;;15.33;6.77;;;11.60;99.90;;;;;;5024077;28;20221;-81
2021/05/12 03:14:59;;;;;;;11.23;6.83;;;11.60;99.90;;;;;;5024758;28;20315;-84
2021/05/12 03:17:25;;;;;;;8.90;6.77;;;11.60;99.90;;;;;;5007851;28;20221;-83
2021/05/12 03:19:50;;;;;;;12.07;7.23;;;11.60;99.90;;;;;;5024542;28;20225;-83
2021/05/12 03:22:16;;;;;;;7.80;5.80;;;11.60;99.90;;;;;;5023350;28;20194;-82
2021/05/12 03:24:42;;;;;;;13.67;7.10;;;11.50;99.90;;;;;;5018756;28;20605;-81
2021/05/12 03:27:08;;;;;;;9.80;5.47;;;11.50;99.90;;;;;;5027343;28;20713;-85
2021/05/12 03:29:34;;;;;;;8.87;5.80;;;11.50;99.90;;;;;;5002596;28;20238;-82
2021/05/12 03:31:59;;;;;;;9.43;6.53;;;11.50;99.90;;;;;;5018594;28;20751;-82
2021/05/12 03:34:25;;;;;;;8.80;5.50;;;11.40;99.90;;;;;;5004981;28;20654;-85
2021/05/12 03:36:51;;;;;;;10.93;7.03;;;11.40;99.90;;;;;;5018817;28;20220;-82
2021/05/12 03:39:16;;;;;;;9.87;6.27;;;11.40;99.90;;;;;;5001820;28;20718;-83
2021/05/12 03:41:42;;;;;;;9.73;6.37;;;11.30;99.90;;;;;;5020134;28;20292;-84
2021/05/12 03:44:10;;;;;;;10.37;7.00;;;11.30;99.90;;;;;;5014649;28;21245;-85
2021/05/12 03:46:35;;;;;;;11.67;6.27;;;11.30;99.90;;;;;;5024312;28;20271;-82
2021/05/12 03:49:01;;;;;;;9.00;5.27;;;11.30;99.90;;;;;;5022358;28;20317;-82
2021/05/12 03:51:27;;;;;;;8.30;6.07;;;11.30;99.90;;;;;;5005216;28;20312;-86
2021/05/12 03:53:53;;;;;;;12.63;6.57;;;11.30;99.90;;;;;;5019268;28;20213;-82
2021/05/12 03:56:18;;;;;;;13.57;7.20;;;11.30;99.90;;;;;;5004828;28;20217;-82
2021/05/12 03:58:44;;;;;;;12.53;6.53;;;11.30;99.90;;;;;;5008080;28;20214;-82
2021/05/12 04:01:10;;;;;;;11.53;7.07;;;11.30;99.90;;;;;;5018890;28;20253;-82
2021/05/12 04:03:36;;;;;;;13.53;7.67;;;11.40;99.90;;;;;;5018089;28;20777;-85
2021/05/12 04:06:01;;;;;;;8.93;6.30;;;11.40;99.90;;;;;;5019838;28;20214;-81
2021/05/12 04:08:27;;;;;;;10.57;7.13;;;11.40;99.90;;;;;;5022160;28;20229;-84
2021/05/12 04:10:53;;;;;;;9.83;6.37;;;11.30;99.90;;;;;;5021495;28;20654;-82
2021/05/12 04:13:20;;;;;;;9.67;6.10;;;11.30;99.90;;;;;;5022009;28;20265;-83
2021/05/12 04:15:47;;;;;;;12.23;7.43;;;11.30;99.90;;;;;;5040388;28;20300;-82
2021/05/12 04:18:13;;;;;;;13.33;6.37;;;11.30;99.90;;;;;;5007089;28;20206;-82
2021/05/12 04:20:39;;;;;;;7.80;5.10;;;11.30;99.90;;;;;;5022894;28;20205;-81
2021/05/12 04:23:05;;;;;;;11.23;6.37;;;11.40;99.90;;;;;;5040631;28;20186;-82
2021/05/12 04:25:31;;;;;;;10.00;6.73;;;11.30;99.90;;;;;;5008613;28;20198;-82
2021/05/12 04:27:57;;;;;;;11.50;6.53;;;11.30;99.90;;;;;;5006417;28;20268;-82
2021/05/12 04:30:24;;;;;;;8.87;6.07;;;11.30;99.90;;;;;;5022248;28;20268;-82
2021/05/12 04:32:50;;;;;;;10.53;5.87;;;11.30;99.90;;;;;;5026757;28;20234;-82
2021/05/12 04:35:18;;;;;;;9.47;6.10;;;11.20;99.90;;;;;;5022594;28;21154;-85
2021/05/12 04:37:46;;;;;;;13.73;7.03;;;11.30;99.90;;;;;;5025263;28;20198;-84
2021/05/12 04:40:12;;;;;;;12.17;6.03;;;11.40;99.90;;;;;;5022900;28;20263;-82
2021/05/12 04:42:38;;;;;;;10.50;6.50;;;11.40;99.90;;;;;;5005158;28;20214;-83
2021/05/12 04:45:09;;;;;;;12.13;7.33;;;11.40;99.90;;;;;;5020764;28;20251;-84
2021/05/12 04:47:35;;;;;;;10.33;6.23;;;11.40;99.90;;;;;;5029254;28;20229;-85
2021/05/12 04:50:02;;;;;;;16.60;8.03;;;11.50;99.90;;;;;;5006775;28;20189;-81
2021/05/12 04:52:27;;;;;;;12.43;6.53;;;11.60;99.90;;;;;;5023358;28;20202;-83
2021/05/12 04:54:53;;;;;;;14.17;6.07;;;11.50;99.90;;;;;;5017881;28;20220;-85
2021/05/12 04:57:19;;;;;;;10.33;6.20;;;11.60;99.90;;;;;;4985375;28;20686;-83
2021/05/12 04:59:45;;;;;;;10.17;6.57;;;11.60;99.90;;;;;;5001605;28;20237;-84
2021/05/12 05:02:12;;;;;;;12.50;7.60;;;11.80;99.90;;;;;;5038863;28;20222;-83
2021/05/12 05:04:40;;;;;;;12.37;7.13;;;11.80;99.90;;;;;;5020706;28;20183;-84
2021/05/12 05:07:06;;;;;;;11.10;5.50;;;11.80;99.90;;;;;;5040542;28;20221;-83
2021/05/12 05:09:32;;;;;;;16.50;7.13;;;11.90;99.90;;;;;;5006342;28;20252;-83
2021/05/12 05:11:58;;;;;;;7.63;5.43;;;11.90;99.90;;;;;;5022342;28;20827;-83
2021/05/12 05:14:23;;;;;;;8.07;4.67;;;11.90;99.90;;;;;;4989655;28;20229;-83
2021/05/12 05:16:49;;;;;;;11.73;5.93;;;11.80;99.90;;;;;;5007584;28;20186;-82
2021/05/12 05:19:15;;;;;;;7.87;5.57;;;12.00;99.90;;;;;;5022939;28;20241;-82
2021/05/12 05:21:41;;;;;;;6.63;4.27;;;12.10;99.90;;;;;;5006162;28;20562;-83
2021/05/12 05:24:09;;;;;;;6.50;4.17;;;12.30;99.90;;;;;;5024675;28;20222;-82
2021/05/12 05:26:35;;;;;;;6.93;4.03;;;12.50;99.90;;;;;;5049922;28;20680;-82
2021/05/12 05:29:01;;;;;;;10.37;3.60;;;13.10;99.90;;;;;;4992650;28;20222;-81
2021/05/12 05:31:27;;;;;;;3.70;2.27;;;13.50;99.90;;;;;;5011423;28;20201;-82
2021/05/12 05:33:54;;;;;;;2.07;1.43;;;13.70;99.90;;;;;;5026411;28;20217;-83
2021/05/12 05:36:20;;;;;;;3.77;1.50;;;13.20;99.90;;;;;;5010232;28;20276;-82
2021/05/12 05:38:46;;;;;;;2.63;2.17;;;13.20;99.90;;;;;;5025963;28;20226;-82
2021/05/12 05:41:12;;;;;;;3.17;1.60;;;13.50;99.90;;;;;;5042143;28;20551;-83
2021/05/12 05:43:37;;;;;;;3.80;1.90;;;13.80;99.90;;;;;;5011332;28;21029;-83
2021/05/12 05:46:03;;;;;;;1.63;1.27;;;14.30;99.90;;;;;;5009361;28;20250;-83
2021/05/12 05:48:29;;;;;;;3.60;2.13;;;14.30;99.90;;;;;;5004928;28;20210;-82
2021/05/12 05:50:56;;;;;;;3.87;1.53;;;15.00;99.90;;;;;;5038764;28;20634;-83
2021/05/12 05:53:21;;;;;;;3.43;2.07;;;15.50;99.90;;;;;;5020340;28;20221;-84
2021/05/12 05:55:48;;;;;;;3.77;1.57;;;16.10;99.90;;;;;;5025696;28;20198;-83
2021/05/12 05:58:13;;;;;;;2.93;1.97;;;17.20;99.90;;;;;;5008752;28;20328;-82
2021/05/12 06:00:41;;;;;;;6.37;1.30;;;18.10;99.90;;;;;;5008748;28;20205;-85
2021/05/12 06:03:07;;;;;;;3.70;1.90;;;19.10;99.90;;;;;;5048479;28;20225;-84
2021/05/12 06:05:33;;;;;;;3.27;1.70;;;20.20;99.90;;;;;;5026008;28;20218;-84
2021/05/12 06:07:59;;;;;;;1.97;1.33;;;20.80;99.90;;;;;;5026854;28;20186;-82
2021/05/12 06:10:25;;;;;;;4.60;1.47;;;19.20;99.90;;;;;;5027099;28;20193;-84
2021/05/12 06:12:51;;;;;;;5.23;1.30;;;19.10;99.90;;;;;;5009526;28;20214;-86
2021/05/12 06:15:22;;;;;;;2.67;1.33;;;19.80;99.90;;;;;;5024952;28;20310;-84
2021/05/12 06:17:48;;;;;;;4.80;1.50;;;20.30;99.90;;;;;;5043310;28;20213;-83
2021/05/12 06:20:15;;;;;;;0.83;0.83;;;22.00;99.90;;;;;;5025115;28;20248;-83
2021/05/12 06:22:41;;;;;;;2.43;1.13;;;21.80;99.90;;;;;;5026706;28;20190;-83
2021/05/12 06:25:10;;;;;;;3.43;1.30;;;19.60;99.90;;;;;;5025304;28;20316;-83
2021/05/12 06:27:36;;;;;;;2.17;1.10;;;18.60;99.90;;;;;;5009139;28;20221;-83
2021/05/12 06:30:07;;;;;;;3.67;1.60;;;19.30;99.90;;;;;;5008825;28;20240;-85
2021/05/12 06:32:33;;;;;;;0.77;0.77;;;21.20;99.90;;;;;;5022514;28;20263;-84
2021/05/12 06:34:58;;;;;;;0.80;0.80;;;20.90;99.90;;;;;;5042810;28;20186;-84
2021/05/12 06:37:24;;;;;;;1.17;0.80;;;20.00;99.90;;;;;;5010407;28;20197;-85
2021/05/12 06:39:50;;;;;;;5.37;1.40;;;19.00;99.90;;;;;;4992642;28;20226;-84
2021/05/12 06:42:17;;;;;;;1.83;1.73;;;19.20;99.90;;;;;;5023951;28;20224;-83
2021/05/12 06:44:43;;;;;;;4.50;1.60;;;19.00;99.90;;;;;;5041148;28;20210;-85
2021/05/12 06:47:09;;;;;;;5.03;1.30;;;21.40;99.90;;;;;;5041744;28;21154;-83
2021/05/12 06:49:35;;;;;;;2.07;1.40;;;21.30;99.90;;;;;;5042646;28;20714;-85
2021/05/12 06:52:00;;;;;;;7.43;1.30;;;21.70;99.90;;;;;;5009569;28;20226;-83
2021/05/12 06:54:26;;;;;;;3.00;1.10;;;22.00;99.90;;;;;;5007731;28;20267;-83
2021/05/12 06:56:52;;;;;;;1.80;0.83;;;21.20;99.90;;;;;;5008779;28;20206;-84
2021/05/12 06:59:18;;;;;;;3.13;0.93;;;20.30;99.90;;;;;;5024887;28;20641;-84
2021/05/12 07:01:44;;;;;;;3.93;1.40;;;19.40;99.90;;;;;;4993168;28;20651;-85
2021/05/12 07:04:09;;;;;;;2.70;1.07;;;19.30;99.90;;;;;;5007895;28;20236;-84
2021/05/12 07:06:35;;;;;;;3.03;1.23;;;20.30;99.90;;;;;;5007341;28;20218;-84
2021/05/12 07:09:01;;;;;;;2.90;1.40;;;20.90;99.90;;;;;;4991751;28;20209;-85
2021/05/12 07:11:28;;;;;;;3.07;0.90;;;22.00;99.90;;;;;;5022786;28;20221;-83
2021/05/12 07:13:54;;;;;;;1.73;1.07;;;21.30;99.90;;;;;;5031796;28;20211;-85
2021/05/12 07:16:20;;;;;;;0.90;0.90;;;22.70;99.90;;;;;;5049594;28;20193;-87
2021/05/12 07:18:46;;;;;;;2.37;1.43;;;21.00;99.90;;;;;;5041919;28;20242;-85
2021/05/12 07:21:12;;;;;;;3.83;1.23;;;20.10;99.90;;;;;;5040339;28;20984;-85
2021/05/12 07:23:41;;;;;;;4.53;1.70;;;20.90;99.90;;;;;;5001368;28;20225;-84
2021/05/12 07:26:07;;;;;;;4.33;1.83;;;21.10;99.90;;;;;;5006216;28;20201;-85
2021/05/12 07:28:33;;;;;;;3.80;0.97;;;20.70;99.90;;;;;;4992506;28;20230;-84
2021/05/12 07:30:59;;;;;;;2.33;1.23;;;20.70;99.90;;;;;;5023173;28;20218;-85
2021/05/12 07:33:24;;;;;;;3.23;1.30;;;21.20;99.90;;;;;;5023650;28;20234;-85
2021/05/12 07:35:50;;;;;;;3.33;1.40;;;21.90;99.90;;;;;;5023642;28;20283;-86
2021/05/12 07:38:16;;;;;;;4.53;1.60;;;22.00;99.90;;;;;;5023561;28;20225;-85
2021/05/12 07:40:43;;;;;;;0.83;0.80;;;21.60;99.90;;;;;;5008996;28;20193;-86
2021/05/12 07:43:11;;;;;;;2.23;1.00;;;20.80;99.90;;;;;;5023357;28;20229;-83
2021/05/12 07:45:38;;;;;;;6.03;1.33;;;19.70;99.90;;;;;;5039593;28;20332;-84
2021/05/12 07:48:10;;;;;;;4.77;1.03;;;19.20;99.90;;;;;;5039780;28;20690;-85
2021/05/12 07:50:37;;;;;;;6.83;1.00;;;19.10;99.90;;;;;;5041506;28;20225;-85
2021/05/12 07:53:04;;;;;;;2.83;1.00;;;18.50;99.90;;;;;;5024926;28;20907;-86
2021/05/12 07:55:30;;;;;;;2.43;1.43;;;18.60;99.90;;;;;;5025319;28;20182;-87
2021/05/12 07:57:56;;;;;;;6.33;1.10;;;18.70;99.90;;;;;;5024827;28;20255;-85
2021/05/12 08:00:23;;;;;;;10.23;1.87;;;19.40;99.90;;;;;;5007653;28;20238;-85
2021/05/12 08:02:49;;;;;;;3.20;1.20;;;20.70;99.90;;;;;;5023797;28;20329;-85
2021/05/12 08:05:15;;;;;;;3.77;1.40;;;20.80;99.90;;;;;;4990793;28;20243;-84
2021/05/12 08:07:41;;;;;;;2.33;1.00;;;19.80;99.90;;;;;;5008964;28;20554;-85
2021/05/12 08:10:08;;;;;;;0.90;0.80;;;18.90;99.90;;;;;;5028982;28;20224;-86
2021/05/12 08:12:34;;;;;;;1.30;0.77;;;18.30;99.90;;;;;;5007375;28;20245;-86
2021/05/12 08:15:00;;;;;;;1.30;0.90;;;18.60;99.90;;;;;;5040040;28;20213;-85
2021/05/12 08:17:26;;;;;;;6.37;1.27;;;19.30;99.90;;;;;;5023866;28;20221;-86
2021/05/12 08:19:52;;;;;;;4.83;1.37;;;18.20;99.90;;;;;;5023805;28;20276;-87
2021/05/12 08:22:18;;;;;;;2.30;1.13;;;18.60;99.90;;;;;;5025562;28;20747;-86
2021/05/12 08:24:44;;;;;;;4.43;1.40;;;17.90;99.90;;;;;;5007474;28;20233;-86
2021/05/12 08:27:10;;;;;;;1.47;0.60;;;17.90;99.90;;;;;;5023809;28;21012;-87
2021/05/12 08:29:37;;;;;;;6.27;1.40;;;18.80;99.90;;;;;;5040166;28;20732;-88
2021/05/12 08:32:04;;;;;;;1.93;0.77;;;19.40;99.90;;;;;;4991391;28;20198;-87
2021/05/12 08:34:31;;;;;;;4.23;1.30;;;19.90;99.90;;;;;;5025190;28;20635;-85
2021/05/12 08:36:57;;;;;;;4.70;1.13;;;19.10;99.90;;;;;;5024787;28;20332;-88
2021/05/12 08:39:22;;;;;;;5.30;1.47;;;20.60;99.90;;;;;;4991299;28;20228;-87
2021/05/12 08:41:51;;;;;;;1.77;1.00;;;21.80;99.90;;;;;;4992092;28;20260;-88
2021/05/12 08:44:18;;;;;;;3.23;1.17;;;22.50;99.90;;;;;;5023977;28;20312;-86
2021/05/12 08:46:44;;;;;;;3.53;1.03;;;21.80;99.90;;;;;;5009199;28;20269;-86
2021/05/12 08:49:10;;;;;;;2.43;1.27;;;21.30;99.90;;;;;;5007226;28;20237;-86
2021/05/12 08:51:37;;;;;;;6.77;1.57;;;21.00;99.90;;;;;;5041165;28;20225;-85
2021/05/12 08:54:04;;;;;;;4.87;1.07;;;22.00;99.90;;;;;;5022873;28;20221;-86
2021/05/12 08:56:30;;;;;;;4.07;1.87;;;20.10;99.90;;;;;;5040990;28;20217;-86
2021/05/12 08:58:57;;;;;;;4.03;1.60;;;18.50;99.90;;;;;;5027287;28;20225;-86
2021/05/12 09:01:23;;;;;;;8.80;1.77;;;17.90;99.90;;;;;;5027725;28;20196;-86
2021/05/12 09:03:49;;;;;;;8.03;1.50;;;18.30;99.90;;;;;;4994369;28;20221;-86
2021/05/12 09:06:14;;;;;;;7.00;1.40;;;19.10;99.90;;;;;;5027693;28;20261;-85
2021/05/12 09:08:41;;;;;;;8.13;1.37;;;21.00;99.90;;;;;;5027893;28;21039;-84
2021/05/12 09:11:07;;;;;;;2.60;1.30;;;21.20;99.90;;;;;;5027465;28;20194;-85
2021/05/12 09:13:38;;;;;;;3.10;1.13;;;20.80;99.90;;;;;;5012398;28;20190;-85
2021/05/12 09:16:23;;;;;;;2.63;1.13;;;20.20;99.90;;;;;;5026154;28;20249;-87
2021/05/12 09:19:02;;;;;;;4.80;1.40;;;19.30;99.90;;;;;;5043238;28;20226;-85
2021/05/12 09:21:47;;;;;;;6.87;1.80;;;20.00;99.90;;;;;;5044871;28;20225;-85
2021/05/12 09:24:25;;;;;;;3.77;1.90;;;18.40;99.90;;;;;;5043332;28;20236;-86
2021/05/12 09:26:54;;;;;;;3.53;1.03;;;17.50;99.90;;;;;;5043956;28;20225;-86
2021/05/12 09:29:22;;;;;;;5.67;1.57;;;17.80;99.90;;;;;;5026404;28;20229;-87
2021/05/12 09:31:48;;;;;;;3.57;1.13;;;17.50;99.90;;;;;;5045597;28;20222;-88
2021/05/12 09:34:13;;;;;;;3.03;1.20;;;17.80;99.90;;;;;;5026908;28;20233;-88
2021/05/12 09:36:40;;;;;;;3.93;1.60;;;17.30;99.90;;;;;;5012607;28;20217;-87
2021/05/12 09:39:14;;;;;;;6.23;1.50;;;17.10;99.90;;;;;;5012720;28;20356;-86
2021/05/12 09:41:42;;;;;;;2.63;1.03;;;17.00;99.90;;;;;;5045293;28;20242;-87
2021/05/12 09:44:09;;;;;;;5.90;1.17;;;17.30;99.90;;;;;;5019113;28;20212;-86
2021/05/12 09:46:40;;;;;;;9.87;2.40;;;18.20;99.90;;;;;;5028822;28;20719;-90
2021/05/12 09:49:17;;;;;;;6.80;1.30;;;18.90;99.90;;;;;;5041852;28;20234;-86
2021/05/12 09:51:48;;;;;;;2.73;1.27;;;19.60;99.90;;;;;;5021692;28;20209;-87
2021/05/12 09:54:21;;;;;;;5.17;1.03;;;20.40;99.90;;;;;;5039910;28;20225;-89
2021/05/12 09:56:50;;;;;;;3.23;1.20;;;19.40;99.90;;;;;;5043749;28;20240;-87
2021/05/12 09:59:18;;;;;;;3.30;1.13;;;18.30;99.90;;;;;;5026188;28;20671;-86
2021/05/12 10:01:47;;;;;;;4.67;1.23;;;18.50;99.90;;;;;;5045999;28;20181;-88
2021/05/12 10:04:50;;;;;;;11.40;2.13;;;17.40;99.90;;;;;;5026923;28;20332;-92
2021/05/12 10:07:26;;;;;;;9.57;2.30;;;17.60;99.90;;;;;;4976454;28;20223;-88
2021/05/12 10:09:55;;;;;;;3.43;1.37;;;17.80;99.90;;;;;;5019464;28;20308;-87
2021/05/12 10:12:23;;;;;;;5.07;0.87;;;17.80;99.90;;;;;;5026757;28;20240;-86
2021/05/12 10:14:51;;;;;;;10.03;1.73;;;17.50;99.90;;;;;;5011107;28;20221;-87
2021/05/12 10:17:19;;;;;;;5.43;1.70;;;18.30;99.90;;;;;;5026920;28;20291;-85
2021/05/12 10:19:46;;;;;;;6.40;0.90;;;18.90;99.90;;;;;;5012128;28;20244;-87
2021/05/12 10:22:13;;;;;;;4.37;1.50;;;17.60;99.90;;;;;;5027692;28;20231;-88
2021/05/12 10:24:41;;;;;;;4.40;1.30;;;16.80;99.90;;;;;;5006455;28;20218;-88
2021/05/12 10:27:09;;;;;;;2.93;1.40;;;16.80;99.90;;;;;;4988285;28;20228;-84
2021/05/12 10:29:37;;;;;;;4.43;1.00;;;17.40;99.90;;;;;;5035940;28;20423;-87
2021/05/12 10:32:17;;;;;;;1.13;0.97;;;17.80;99.90;;;;;;5037031;28;20724;-84
2021/05/12 10:34:43;;;;;;;1.00;0.90;;;17.30;99.90;;;;;;5023646;28;20190;-85
2021/05/12 10:37:20;;;;;;;2.67;1.30;;;17.00;99.90;;;;;;4999318;28;20329;-84
2021/05/12 10:39:50;;;;;;;5.90;1.17;;;16.70;99.90;;;;;;5038269;28;20324;-84
2021/05/12 10:42:57;;;;;;;4.87;1.33;;;17.60;99.90;;;;;;5036235;28;20220;-83
2021/05/12 10:45:32;;;;;;;6.60;1.10;;;18.50;99.90;;;;;;5029200;28;20225;-84
2021/05/12 10:47:57;;;;;;;4.77;1.77;;;18.50;99.90;;;;;;5020430;28;20248;-85
2021/05/12 10:50:43;;;;;;;6.97;2.03;;;18.70;99.90;;;;;;5021434;28;20435;-84
2021/05/12 10:53:30;;;;;;;5.00;1.33;;;17.60;99.90;;;;;;5042157;28;20190;-85
2021/05/12 10:56:00;;;;;;;2.40;1.23;;;17.30;99.90;;;;;;5021298;28;20192;-83
2021/05/12 10:58:31;;;;;;;5.40;1.30;;;17.30;99.90;;;;;;5024141;28;20205;-86
2021/05/12 11:01:05;;;;;;;4.13;1.13;;;17.40;99.90;;;;;;5043266;28;20210;-87
2021/05/12 11:03:49;;;;;;;2.87;1.43;;;16.60;99.90;;;;;;5027130;28;20221;-86
2021/05/12 11:06:16;;;;;;;11.07;1.50;;;16.20;99.90;;;;;;5041104;28;20325;-85
2021/05/12 11:09:05;;;;;;;3.93;1.20;;;16.50;99.90;;;;;;5041813;28;20217;-84
2021/05/12 11:11:32;;;;;;;3.33;2.50;;;17.10;99.90;;;;;;5039712;28;20222;-86
2021/05/12 11:14:27;;;;;;;6.70;1.33;;;17.10;99.90;;;;;;5019833;28;20201;-87
2021/05/12 11:17:10;;;;;;;4.07;1.67;;;17.00;99.90;;;;;;5003782;28;20221;-87
2021/05/12 11:19:42;;;;;;;3.20;1.13;;;16.70;99.90;;;;;;5037665;28;20271;-87
2021/05/12 11:22:38;;;;;;;0.83;0.73;;;16.90;99.90;;;;;;5021381;28;20222;-87
2021/05/12 11:33:35;;;;;;;4.40;1.67;;;18.10;99.90;;;;;;5041968;28;20221;-88
2021/05/12 11:36:07;;;;;;;4.23;1.30;;;17.50;99.90;;;;;;5020542;28;20267;-91
2021/05/12 11:38:34;;;;;;;3.07;1.37;;;16.50;99.90;;;;;;5037367;28;20226;-88
2021/05/12 11:41:04;;;;;;;3.87;1.80;;;16.40;99.90;;;;;;5018628;28;20186;-88
2021/05/12 11:43:48;;;;;;;4.03;1.67;;;16.90;99.90;;;;;;5038054;28;20218;-90
2021/05/12 11:46:15;;;;;;;6.60;1.00;;;17.60;99.90;;;;;;5035227;28;20241;-88
2021/05/12 11:48:49;;;;;;;3.30;1.90;;;18.30;99.90;;;;;;5019869;28;20344;-88
2021/05/12 11:51:18;;;;;;;10.00;1.70;;;17.60;99.90;;;;;;5037987;28;20311;-88
2021/05/12 11:53:44;;;;;;;3.03;1.10;;;18.00;99.90;;;;;;5021645;28;20218;-90
2021/05/12 11:56:12;;;;;;;4.87;1.53;;;17.80;99.90;;;;;;5023594;28;20229;-89
2021/05/12 11:58:40;;;;;;;10.23;1.63;;;17.60;99.90;;;;;;5012894;28;20251;-89
2021/05/12 12:01:11;;;;;;;5.27;1.03;;;17.20;99.90;;;;;;5042888;28;20284;-90
2021/05/12 12:03:43;;;;;;;5.90;1.20;;;17.30;99.90;;;;;;5044406;28;20210;-88
2021/05/12 12:06:12;;;;;;;7.40;1.27;;;17.10;99.90;;;;;;5012304;28;20218;-88
2021/05/12 12:08:38;;;;;;;6.50;1.33;;;17.00;99.90;;;;;;5045690;28;20225;-89
2021/05/12 12:11:13;;;;;;;7.77;1.33;;;16.70;99.90;;;;;;5045725;28;20208;-87
2021/05/12 12:13:44;;;;;;;3.33;2.00;;;17.10;99.90;;;;;;5044464;28;20241;-89
2021/05/12 12:16:11;;;;;;;5.27;1.17;;;16.80;99.90;;;;;;5031330;28;20259;-89
2021/05/12 12:18:38;;;;;;;1.53;0.83;;;16.70;99.90;;;;;;5019089;28;20210;-90
2021/05/12 12:21:09;;;;;;;3.67;1.10;;;16.80;99.90;;;;;;5024930;28;20293;-88
2021/05/12 12:23:40;;;;;;;2.83;1.10;;;16.80;99.90;;;;;;5045996;28;20263;-89
2021/05/12 12:26:16;;;;;;;5.00;1.50;;;16.60;99.90;;;;;;5042681;28;20215;-88
2021/05/12 12:28:44;;;;;;;6.93;1.23;;;16.60;99.90;;;;;;5025841;28;20177;-89
2021/05/12 12:31:30;;;;;;;6.70;1.60;;;16.50;99.90;;;;;;5024955;28;20237;-88
2021/05/12 12:34:06;;;;;;;3.60;1.20;;;16.80;99.90;;;;;;5024838;28;20622;-91
2021/05/12 12:36:32;;;;;;;4.87;1.17;;;16.80;99.90;;;;;;5040194;28;20217;-90
2021/05/12 12:39:02;;;;;;;9.77;1.40;;;16.60;99.90;;;;;;5007968;28;20227;-87
2021/05/12 12:41:31;;;;;;;3.33;0.90;;;16.70;99.90;;;;;;5030220;28;20227;-86
2021/05/12 12:43:57;;;;;;;5.23;1.20;;;16.50;99.90;;;;;;5020736;28;20196;-88
2021/05/12 12:46:27;;;;;;;3.13;1.40;;;16.30;99.90;;;;;;5014929;28;20194;-88
2021/05/12 12:48:53;;;;;;;4.20;1.47;;;16.50;99.90;;;;;;5007535;28;20556;-88
2021/05/12 12:51:39;;;;;;;5.53;1.47;;;16.60;99.90;;;;;;4989198;28;20812;-89
2021/05/12 12:54:06;;;;;;;0.73;0.70;;;16.90;99.90;;;;;;5008071;28;20218;-88
2021/05/12 12:56:34;;;;;;;1.67;0.83;;;16.60;99.90;;;;;;5023715;28;20220;-90